Time;durP1;ratioP1;P1;durP2;ratioP2;P2;SDS_P1;SDS_P2;PMS_P1;PMS_P2;Temp;Humidity;BMP_temperature;BMP_pressure;BME280_temperature;BME280_humidity;BME280_pressure;Samples;Min_cycle;Max_cycle;Signal;HPM_P1;HPM_P2
2023/12/30 00:00:01;;;;;;;24.80;15.40;;;;;;;-4.38;100.00;141212.91;107129;1263;25408;-64
2023/12/30 00:02:48;;;;;;;27.90;15.90;;;;;;;-4.40;100.00;141208.94;107195;1267;25344;-62
2023/12/30 00:05:33;;;;;;;26.50;16.20;;;;;;;-4.40;100.00;141208.20;107081;1251;25446;-62
2023/12/30 00:08:20;;;;;;;30.30;18.00;;;;;;;-4.40;100.00;141209.69;107113;1260;25347;-64
2023/12/30 00:11:06;;;;;;;26.40;16.50;;;;;;;-4.41;100.00;141206.72;107118;1270;25401;-64
2023/12/30 00:13:52;;;;;;;27.60;16.30;;;;;;;-4.41;100.00;141205.97;107085;1263;25418;-61
2023/12/30 00:16:39;;;;;;;28.10;16.70;;;;;;;-4.43;100.00;141201.25;107103;1264;25420;-63
2023/12/30 00:19:25;;;;;;;27.70;16.10;;;;;;;-4.45;100.00;141196.08;107432;1251;25347;-62
2023/12/30 00:22:11;;;;;;;28.90;17.30;;;;;;;-4.45;100.00;141196.06;107325;1269;25340;-64
2023/12/30 00:24:57;;;;;;;24.80;16.40;;;;;;;-4.45;100.00;141197.06;107139;1273;25364;-62
2023/12/30 00:27:43;;;;;;;27.00;16.40;;;;;;;-4.43;100.00;141200.78;107203;1254;25339;-63
2023/12/30 00:30:29;;;;;;;28.70;16.80;;;;;;;-4.44;100.00;141198.55;107244;1263;25418;-64
2023/12/30 00:33:14;;;;;;;29.40;16.90;;;;;;;-4.45;100.00;141195.58;107178;1265;25344;-60
2023/12/30 00:36:03;;;;;;;27.90;16.20;;;;;;;-4.45;100.00;141196.81;107100;1266;25360;-63
2023/12/30 00:38:49;;;;;;;27.50;17.50;;;;;;;-4.46;100.00;141193.09;107123;1269;25405;-60
2023/12/30 00:41:35;;;;;;;30.70;17.90;;;;;;;-4.46;100.00;141192.84;107015;1263;25328;-64
2023/12/30 00:44:20;;;;;;;26.40;16.20;;;;;;;-4.45;100.00;141195.80;107107;1263;25360;-60
2023/12/30 00:47:07;;;;;;;25.70;16.90;;;;;;;-4.45;100.00;141195.55;107040;1263;25368;-61
2023/12/30 00:49:53;;;;;;;25.60;15.40;;;;;;;-4.46;100.00;141195.06;107100;1271;25444;-62
2023/12/30 00:52:39;;;;;;;24.70;14.70;;;;;;;-4.46;100.00;141193.34;107160;1263;25337;-61
2023/12/30 00:55:25;;;;;;;25.60;15.70;;;;;;;-4.46;100.00;141194.58;107164;1263;25418;-65
2023/12/30 00:58:11;;;;;;;26.90;15.80;;;;;;;-4.44;100.00;141199.03;107106;1267;25359;-61
2023/12/30 01:00:58;;;;;;;26.90;15.90;;;;;;;-4.43;100.00;141200.53;107135;1269;25331;-59
2023/12/30 01:03:44;;;;;;;22.20;14.50;;;;;;;-4.42;100.00;141202.75;107044;1273;25834;-59
2023/12/30 01:06:30;;;;;;;25.60;16.20;;;;;;;-4.43;100.00;141200.03;107075;1273;25369;-55
2023/12/30 01:09:16;;;;;;;28.20;16.60;;;;;;;-4.42;100.00;141204.25;107055;1273;25322;-58
2023/12/30 01:12:01;;;;;;;22.40;14.20;;;;;;;-4.38;100.00;141213.41;107062;1266;25369;-63
2023/12/30 01:14:47;;;;;;;23.80;13.80;;;;;;;-4.31;100.00;141229.75;107003;1260;25398;-59
2023/12/30 01:17:34;;;;;;;29.90;16.90;;;;;;;-4.27;100.00;141239.66;106958;1263;25507;-65
2023/12/30 01:20:20;;;;;;;25.50;15.50;;;;;;;-4.26;100.00;141241.38;106986;1263;25337;-63
2023/12/30 01:23:06;;;;;;;24.00;15.60;;;;;;;-4.27;100.00;141240.16;107068;1268;25328;-59
2023/12/30 01:25:51;;;;;;;25.40;14.80;;;;;;;-4.29;100.00;141233.95;107082;1263;25356;-64
2023/12/30 01:28:37;;;;;;;22.80;14.30;;;;;;;-4.33;100.00;141225.53;107025;1268;25337;-61
2023/12/30 01:31:23;;;;;;;25.30;15.10;;;;;;;-4.34;100.00;141221.34;107035;1272;25341;-60
2023/12/30 01:34:09;;;;;;;20.80;14.00;;;;;;;-4.31;100.00;141230.98;107090;1263;25388;-64
2023/12/30 01:36:54;;;;;;;26.50;14.80;;;;;;;-4.25;100.00;141244.61;107047;1273;25380;-64
2023/12/30 01:39:40;;;;;;;25.60;15.40;;;;;;;-4.23;100.00;141250.80;107033;1273;25328;-66
2023/12/30 01:42:26;;;;;;;24.40;14.80;;;;;;;-4.24;100.00;141248.30;107131;1269;25551;-61
2023/12/30 01:45:12;;;;;;;23.00;13.70;;;;;;;-4.29;100.00;141235.45;107064;1273;25551;-66
2023/12/30 01:47:59;;;;;;;26.10;14.30;;;;;;;-4.32;100.00;141228.28;107052;1273;25481;-61
2023/12/30 01:50:46;;;;;;;26.50;15.30;;;;;;;-4.32;100.00;141228.78;106998;1272;25415;-63
2023/12/30 01:53:36;;;;;;;24.50;14.40;;;;;;;-4.29;100.00;141234.22;107250;1270;25331;-61
2023/12/30 01:56:24;;;;;;;28.50;16.90;;;;;;;-4.27;100.00;141239.41;107206;1263;25376;-63
2023/12/30 01:59:12;;;;;;;30.00;16.90;;;;;;;-4.27;100.00;141240.91;107202;1270;25328;-60
2023/12/30 02:01:58;;;;;;;27.80;17.70;;;;;;;-4.28;100.00;141237.92;107125;1272;25347;-63
2023/12/30 02:04:45;;;;;;;25.90;15.60;;;;;;;-4.31;100.00;141230.75;107046;1268;25490;-60
2023/12/30 02:07:32;;;;;;;25.20;14.70;;;;;;;-4.35;100.00;141221.09;107074;1270;25331;-63
2023/12/30 02:10:18;;;;;;;25.00;14.80;;;;;;;-4.37;100.00;141216.63;107019;1263;25448;-62
2023/12/30 02:13:04;;;;;;;22.30;14.70;;;;;;;-4.36;100.00;141218.34;107055;1263;25481;-57
2023/12/30 02:15:50;;;;;;;24.40;14.20;;;;;;;-4.35;100.00;141220.36;106997;1271;25388;-58
2023/12/30 02:18:37;;;;;;;24.00;14.20;;;;;;;-4.33;100.00;141225.53;107033;1271;25353;-58
2023/12/30 02:21:23;;;;;;;20.50;13.50;;;;;;;-4.33;100.00;141224.55;106997;1263;25430;-58
2023/12/30 02:24:09;;;;;;;21.80;13.00;;;;;;;-4.36;100.00;141218.13;107047;1269;25387;-58
2023/12/30 02:26:55;;;;;;;21.20;14.10;;;;;;;-4.38;100.00;141212.16;106994;1267;25359;-63
2023/12/30 02:29:41;;;;;;;21.10;13.50;;;;;;;-4.39;100.00;141210.17;107009;1263;25380;-60
2023/12/30 02:32:26;;;;;;;24.40;14.60;;;;;;;-4.39;100.00;141212.16;106993;1272;25481;-65
2023/12/30 02:35:12;;;;;;;21.50;13.50;;;;;;;-4.40;100.00;141210.17;107022;1266;25408;-63
2023/12/30 02:37:58;;;;;;;22.60;13.10;;;;;;;-4.40;100.00;141208.19;106965;1263;25359;-65
2023/12/30 02:40:44;;;;;;;21.80;13.20;;;;;;;-4.39;100.00;141210.42;107003;1269;25369;-66
2023/12/30 02:43:36;;;;;;;22.60;13.10;;;;;;;-4.37;100.00;141215.66;107063;1270;25395;-63
2023/12/30 02:46:22;;;;;;;20.50;12.90;;;;;;;-4.35;100.00;141221.34;107268;1273;25477;-61
2023/12/30 02:49:08;;;;;;;21.10;12.90;;;;;;;-4.32;100.00;141228.52;107278;1272;25322;-62
2023/12/30 02:51:55;;;;;;;21.90;13.30;;;;;;;-4.30;100.00;141233.47;107315;1263;25416;-63
2023/12/30 02:54:40;;;;;;;22.50;13.20;;;;;;;-4.28;100.00;141237.17;107067;1272;25392;-63
2023/12/30 02:57:26;;;;;;;22.50;13.40;;;;;;;-4.27;100.00;141240.41;106998;1272;25560;-65
2023/12/30 03:00:12;;;;;;;20.10;12.80;;;;;;;-4.28;100.00;141238.41;107008;1272;25433;-62
2023/12/30 03:02:58;;;;;;;19.80;13.50;;;;;;;-4.31;100.00;141231.00;107075;1273;25353;-63
2023/12/30 03:05:46;;;;;;;18.90;12.40;;;;;;;-4.33;100.00;141224.78;107042;1270;25408;-63
2023/12/30 03:08:32;;;;;;;20.10;12.50;;;;;;;-4.34;100.00;141222.83;107025;1264;25340;-63
2023/12/30 03:11:19;;;;;;;24.20;13.90;;;;;;;-4.33;100.00;141225.30;107118;1270;25332;-65
2023/12/30 03:14:05;;;;;;;19.60;13.00;;;;;;;-4.31;100.00;141229.25;107075;1273;25331;-62
2023/12/30 03:16:51;;;;;;;23.00;12.90;;;;;;;-4.29;100.00;141234.20;107020;1272;25386;-65
2023/12/30 03:19:37;;;;;;;21.20;13.20;;;;;;;-4.27;100.00;141238.42;107034;1273;25328;-64
2023/12/30 03:22:23;;;;;;;20.80;13.70;;;;;;;-4.31;100.00;141230.52;107028;1273;25417;-63
2023/12/30 03:25:09;;;;;;;22.20;12.80;;;;;;;-4.36;100.00;141218.13;107058;1264;25417;-59
2023/12/30 03:27:55;;;;;;;23.30;14.00;;;;;;;-4.39;100.00;141211.42;107066;1270;25340;-61
2023/12/30 03:30:40;;;;;;;22.60;14.00;;;;;;;-4.40;100.00;141208.69;107023;1270;25366;-62
2023/12/30 03:33:27;;;;;;;23.20;13.80;;;;;;;-4.38;100.00;141214.41;107031;1263;25334;-62
2023/12/30 03:36:12;;;;;;;24.30;14.20;;;;;;;-4.37;100.00;141216.88;107109;1272;25418;-63
2023/12/30 03:38:58;;;;;;;25.90;14.80;;;;;;;-4.38;100.00;141213.66;107055;1271;25433;-68
2023/12/30 03:41:43;;;;;;;26.20;14.10;;;;;;;-4.41;100.00;141207.45;107022;1271;25331;-61
2023/12/30 03:44:29;;;;;;;23.50;14.50;;;;;;;-4.41;100.00;141207.45;106987;1262;25331;-65
2023/12/30 03:47:15;;;;;;;26.50;14.30;;;;;;;-4.39;100.00;141212.16;107089;1261;25408;-62
2023/12/30 03:50:01;;;;;;;22.90;13.90;;;;;;;-4.38;100.00;141214.41;107064;1270;25408;-65
2023/12/30 03:52:48;;;;;;;22.40;13.60;;;;;;;-4.37;100.00;141216.88;107092;1273;25372;-64
2023/12/30 03:55:34;;;;;;;22.60;14.10;;;;;;;-4.35;100.00;141219.84;107108;1264;25322;-60
2023/12/30 03:58:20;;;;;;;24.90;14.70;;;;;;;-4.38;100.00;141214.39;107386;1267;25412;-58
2023/12/30 04:01:06;;;;;;;25.10;14.40;;;;;;;-4.41;100.00;141206.45;107236;1270;25406;-63
2023/12/30 04:03:52;;;;;;;23.70;13.80;;;;;;;-4.43;100.00;141200.03;106959;1267;25380;-62
2023/12/30 04:06:38;;;;;;;23.00;14.40;;;;;;;-4.43;100.00;141201.27;107023;1264;25482;-67
2023/12/30 04:09:24;;;;;;;25.00;15.70;;;;;;;-4.41;100.00;141206.22;107051;1263;25482;-65
2023/12/30 04:12:10;;;;;;;26.20;15.10;;;;;;;-4.40;100.00;141209.44;107063;1263;25398;-61
2023/12/30 04:14:55;;;;;;;27.70;14.90;;;;;;;-4.42;100.00;141203.25;107042;1270;25325;-64
2023/12/30 04:17:41;;;;;;;25.80;15.70;;;;;;;-4.49;100.00;141187.41;106986;1271;25375;-61
2023/12/30 04:20:27;;;;;;;24.70;14.90;;;;;;;-4.54;100.00;141173.80;107090;1264;25331;-63
2023/12/30 04:23:12;;;;;;;26.50;15.20;;;;;;;-4.60;100.00;141160.67;107061;1270;25458;-60
2023/12/30 04:25:58;;;;;;;22.00;14.10;;;;;;;-4.61;100.00;141157.47;106968;1264;25350;-63
2023/12/30 04:28:46;;;;;;;25.40;15.30;;;;;;;-4.61;100.00;141157.22;106969;1264;25384;-63
2023/12/30 04:31:32;;;;;;;23.70;15.30;;;;;;;-4.61;100.00;141157.20;107016;1272;25359;-58
2023/12/30 04:34:18;;;;;;;25.30;15.30;;;;;;;-4.62;100.00;141156.47;107070;1270;25407;-64
2023/12/30 04:37:04;;;;;;;24.90;14.70;;;;;;;-4.62;100.00;141155.22;107049;1273;25446;-59
2023/12/30 04:39:49;;;;;;;20.40;13.90;;;;;;;-4.63;100.00;141152.98;106993;1263;25323;-60
2023/12/30 04:42:36;;;;;;;22.60;12.80;;;;;;;-4.63;100.00;141153.98;107006;1270;25347;-63
2023/12/30 04:45:22;;;;;;;21.20;13.80;;;;;;;-4.61;100.00;141158.19;107003;1272;25424;-58
2023/12/30 04:48:07;;;;;;;21.50;13.60;;;;;;;-4.57;100.00;141166.13;107114;1263;25331;-61
2023/12/30 04:50:53;;;;;;;22.40;13.50;;;;;;;-4.55;100.00;141170.31;107106;1273;24347;-67
2023/12/30 04:53:39;;;;;;;22.70;13.20;;;;;;;-4.55;100.00;141172.06;107043;1267;25341;-60
2023/12/30 04:56:25;;;;;;;22.30;13.10;;;;;;;-4.56;100.00;141169.08;107000;1261;25417;-62
2023/12/30 04:59:12;;;;;;;21.00;13.10;;;;;;;-4.57;100.00;141167.11;107063;1273;25369;-57
2023/12/30 05:01:57;;;;;;;20.80;13.40;;;;;;;-4.56;100.00;141170.33;107011;1271;25359;-65
2023/12/30 05:04:43;;;;;;;20.30;12.90;;;;;;;-4.54;100.00;141174.05;107022;1271;25359;-59
2023/12/30 05:07:29;;;;;;;21.50;14.20;;;;;;;-4.53;100.00;141175.53;107114;1265;25357;-64
2023/12/30 05:10:14;;;;;;;24.00;13.80;;;;;;;-4.55;100.00;141171.06;107040;1273;25481;-60
2023/12/30 05:13:01;;;;;;;20.10;13.30;;;;;;;-4.55;100.00;141171.55;107115;1271;25359;-63
2023/12/30 05:15:48;;;;;;;22.90;14.60;;;;;;;-4.54;100.00;141173.78;107002;1273;25321;-62
2023/12/30 05:18:34;;;;;;;20.90;13.10;;;;;;;-4.53;100.00;141176.28;107087;1272;25414;-64
2023/12/30 05:21:20;;;;;;;24.40;14.50;;;;;;;-4.51;100.00;141180.72;107043;1270;25420;-64
2023/12/30 05:24:06;;;;;;;26.20;14.50;;;;;;;-4.51;100.00;141180.47;107059;1264;25366;-60
2023/12/30 05:26:52;;;;;;;23.90;14.70;;;;;;;-4.52;100.00;141178.00;106999;1264;25331;-62
2023/12/30 05:29:37;;;;;;;22.10;13.50;;;;;;;-4.55;100.00;141171.08;107036;1269;25478;-66
2023/12/30 05:32:22;;;;;;;20.90;13.50;;;;;;;-4.56;100.00;141168.09;106763;1267;346663;-61
2023/12/30 05:35:08;;;;;;;23.00;14.80;;;;;;;-4.57;100.00;141167.13;106974;1267;25369;-67
2023/12/30 05:37:55;;;;;;;21.70;13.10;;;;;;;-4.57;100.00;141167.09;107029;1261;25408;-61
2023/12/30 05:40:42;;;;;;;19.80;13.70;;;;;;;-4.58;100.00;141164.91;107002;1267;25332;-62
2023/12/30 05:43:28;;;;;;;22.90;13.20;;;;;;;-4.60;100.00;141160.19;107037;1264;25350;-65
2023/12/30 05:46:16;;;;;;;20.50;12.90;;;;;;;-4.60;100.00;141160.19;107092;1264;25520;-62
2023/12/30 05:49:02;;;;;;;20.60;13.20;;;;;;;-4.63;100.00;141153.75;107026;1264;23771;-61
2023/12/30 05:51:50;;;;;;;20.90;12.70;;;;;;;-4.63;100.00;141154.48;107043;1264;25407;-63
2023/12/30 05:54:37;;;;;;;20.90;13.20;;;;;;;-4.60;100.00;141160.17;107071;1264;25497;-62
2023/12/30 05:57:22;;;;;;;21.60;14.00;;;;;;;-4.57;100.00;141165.63;107060;1264;25378;-66
2023/12/30 06:00:09;;;;;;;21.20;13.50;;;;;;;-4.57;100.00;141166.88;107051;1264;25462;-60
2023/12/30 06:02:58;;;;;;;21.80;13.30;;;;;;;-4.61;100.00;141159.44;107059;1267;25443;-61
2023/12/30 06:05:43;;;;;;;23.80;13.50;;;;;;;-4.60;100.00;141160.92;107007;1264;25385;-57
2023/12/30 06:08:31;;;;;;;22.50;13.30;;;;;;;-4.57;100.00;141166.88;106996;1263;25350;-62
2023/12/30 06:11:17;;;;;;;22.20;14.10;;;;;;;-4.57;100.00;141166.39;107083;1272;25353;-63
2023/12/30 06:14:03;;;;;;;24.90;14.90;;;;;;;-4.55;100.00;141171.31;107094;1254;25379;-63
2023/12/30 06:16:49;;;;;;;30.00;16.30;;;;;;;-4.49;100.00;141186.67;107177;1264;25405;-64
2023/12/30 06:19:34;;;;;;;25.80;14.20;;;;;;;-4.41;100.00;141206.72;107399;1264;25392;-64
2023/12/30 06:22:20;;;;;;;24.90;15.80;;;;;;;-4.28;100.00;141237.91;107179;1264;25478;-63
2023/12/30 06:25:06;;;;;;;23.70;15.30;;;;;;;-4.09;100.00;141283.72;107133;1270;25378;-61
2023/12/30 06:27:52;;;;;;;24.30;15.60;;;;;;;-3.84;100.00;141344.67;107013;1260;25379;-65
2023/12/30 06:30:39;;;;;;;24.60;15.20;;;;;;;-3.59;100.00;141403.61;107000;1264;25356;-63
2023/12/30 06:33:24;;;;;;;25.60;15.10;;;;;;;-3.29;100.00;141477.47;107059;1263;25363;-62
2023/12/30 06:36:20;;;;;;;20.50;13.90;;;;;;;-2.98;100.00;141552.08;107003;1264;25452;-60
2023/12/30 06:39:06;;;;;;;22.90;14.60;;;;;;;-2.90;100.00;141571.66;107039;1272;25396;-66
2023/12/30 06:41:51;;;;;;;25.70;13.90;;;;;;;-2.84;100.00;141585.55;107121;1263;25481;-63
2023/12/30 06:44:36;;;;;;;21.70;14.10;;;;;;;-2.67;100.00;141626.45;107036;1261;25369;-62
2023/12/30 06:47:22;;;;;;;21.70;13.40;;;;;;;-2.55;100.00;141655.23;107044;1263;25373;-62
2023/12/30 06:50:08;;;;;;;22.40;14.40;;;;;;;-2.47;100.00;141677.31;107126;1264;25382;-64
2023/12/30 06:52:58;;;;;;;24.30;15.10;;;;;;;-2.23;100.00;141734.36;107114;1260;25332;-61
2023/12/30 06:55:43;;;;;;;21.40;14.30;;;;;;;-2.01;100.00;141786.70;107158;1264;25348;-63
2023/12/30 06:58:34;;;;;;;21.90;13.70;;;;;;;-2.03;100.00;141781.73;107136;1264;25430;-63
2023/12/30 07:01:20;;;;;;;22.90;13.10;;;;;;;-2.01;100.00;141788.44;106984;1261;25353;-63
2023/12/30 07:04:06;;;;;;;23.20;14.00;;;;;;;-1.96;100.00;141799.11;106999;1260;25418;-61
2023/12/30 07:06:53;;;;;;;21.50;13.60;;;;;;;-1.85;100.00;141826.64;106966;1263;25448;-63
2023/12/30 07:09:39;;;;;;;19.30;13.00;;;;;;;-1.62;100.00;141881.27;106994;1263;25423;-61
2023/12/30 07:12:25;;;;;;;22.70;14.70;;;;;;;-1.45;100.00;141921.73;107037;1264;25383;-64
2023/12/30 07:15:11;;;;;;;21.30;14.40;;;;;;;-1.15;100.00;141996.47;107036;1266;25378;-62
2023/12/30 07:17:57;;;;;;;23.60;14.00;;;;;;;-1.09;100.00;142009.34;107093;1264;25395;-63
2023/12/30 07:20:43;;;;;;;22.90;13.90;;;;;;;-1.12;100.00;142002.42;107036;1264;25417;-64
2023/12/30 07:23:29;;;;;;;21.80;12.90;;;;;;;-0.81;100.00;142079.41;107080;1263;25337;-66
2023/12/30 07:26:14;;;;;;;20.40;12.70;;;;;;;-0.29;100.00;142205.66;107060;1260;25417;-62
2023/12/30 07:29:00;;;;;;;19.50;12.30;;;;;;;0.47;100.00;142389.86;106983;1263;25356;-60
2023/12/30 07:31:46;;;;;;;21.60;13.60;;;;;;;0.67;100.00;142436.89;107041;1264;25490;-63
2023/12/30 07:34:33;;;;;;;18.30;12.20;;;;;;;0.60;100.00;142421.44;106987;1264;25491;-67
2023/12/30 07:37:19;;;;;;;20.30;13.50;;;;;;;0.46;100.00;142387.59;107174;1259;25484;-65
2023/12/30 07:40:06;;;;;;;19.50;12.70;;;;;;;0.34;100.00;142358.03;106963;1273;25359;-66
2023/12/30 07:42:51;;;;;;;18.70;12.60;;;;;;;0.28;100.00;142343.59;106986;1263;25353;-58
2023/12/30 07:45:37;;;;;;;18.50;12.50;;;;;;;0.27;100.00;142339.38;107037;1264;25328;-62
2023/12/30 07:48:22;;;;;;;20.60;13.00;;;;;;;0.29;100.00;142345.09;107030;1264;25587;-66
2023/12/30 07:51:08;;;;;;;20.70;13.20;;;;;;;0.28;100.00;142343.36;106962;1263;25580;-65
2023/12/30 07:53:54;;;;;;;19.40;12.80;;;;;;;0.13;100.00;142306.83;107013;1263;25418;-69
2023/12/30 07:56:40;;;;;;;20.80;14.00;;;;;;;-0.15;100.00;142239.45;107062;1264;23901;-65
2023/12/30 07:59:25;;;;;;;18.10;12.70;;;;;;;-0.38;100.00;142182.28;107533;1263;23886;-65
2023/12/30 08:02:11;;;;;;;21.00;13.20;;;;;;;-0.55;100.00;142140.03;107305;1263;25513;-67
2023/12/30 08:04:57;;;;;;;21.10;12.90;;;;;;;-0.68;100.00;142110.47;107042;1263;25411;-66
2023/12/30 08:07:43;;;;;;;20.40;13.50;;;;;;;-0.80;100.00;142080.67;107097;1260;23063;-63
2023/12/30 08:10:29;;;;;;;23.60;14.10;;;;;;;-0.87;100.00;142064.75;107477;1264;25434;-69
2023/12/30 08:13:16;;;;;;;21.70;13.70;;;;;;;-0.86;100.00;142066.52;107628;1263;25429;-60
2023/12/30 08:16:02;;;;;;;22.80;14.30;;;;;;;-0.80;100.00;142080.91;107509;1260;25426;-66
2023/12/30 08:18:48;;;;;;;25.00;14.60;;;;;;;-0.71;100.00;142102.53;107155;1264;25359;-67
2023/12/30 08:21:34;;;;;;;21.60;13.70;;;;;;;-0.68;100.00;142109.72;107013;1264;25398;-67
2023/12/30 08:24:20;;;;;;;21.70;13.90;;;;;;;-0.66;100.00;142114.95;107095;1260;25407;-64
2023/12/30 08:27:06;;;;;;;22.80;13.80;;;;;;;-0.63;100.00;142121.42;107088;1264;25557;-65
2023/12/30 08:29:52;;;;;;;22.40;14.50;;;;;;;-0.57;100.00;142136.81;107207;1263;24380;-65
2023/12/30 08:32:37;;;;;;;20.10;14.20;;;;;;;-0.52;100.00;142149.22;107186;1263;25710;-68
2023/12/30 08:35:23;;;;;;;29.50;13.90;;;;;;;-0.46;100.00;142164.39;107074;1269;25403;-65
2023/12/30 08:38:08;;;;;;;21.60;13.90;;;;;;;-0.35;100.00;142189.98;107054;1264;25461;-66
2023/12/30 08:40:54;;;;;;;21.80;13.00;;;;;;;-0.22;100.00;142221.05;107083;1264;25430;-67
2023/12/30 08:43:43;;;;;;;20.70;12.20;;;;;;;-0.10;100.00;142250.61;107156;1264;25379;-65
2023/12/30 08:46:29;;;;;;;19.90;13.00;;;;;;;0.01;100.00;142277.73;107172;1263;25494;-62
2023/12/30 08:49:15;;;;;;;22.00;13.80;;;;;;;0.11;100.00;142300.84;107278;1264;24338;-67
2023/12/30 08:55:14;;;;;;;19.00;12.50;;;;;;;0.13;100.00;142307.80;107022;1266;25468;-67
2023/12/30 08:58:00;;;;;;;17.90;12.30;;;;;;;0.15;100.00;142312.28;107047;1263;25332;-63
2023/12/30 09:00:45;;;;;;;21.10;13.40;;;;;;;0.13;100.00;142305.58;107038;1263;25353;-67
2023/12/30 09:03:31;;;;;;;19.80;12.40;;;;;;;0.07;100.00;142291.39;107016;1263;25491;-65
2023/12/30 09:06:16;;;;;;;20.90;13.60;;;;;;;0.02;100.00;142279.22;107026;1263;25415;-64
2023/12/30 09:09:04;;;;;;;24.00;12.90;;;;;;;-0.06;100.00;142259.83;107067;1263;25368;-59
2023/12/30 09:11:49;;;;;;;17.40;12.10;;;;;;;-0.12;100.00;142244.92;107024;1260;25402;-61
2023/12/30 09:14:35;;;;;;;18.20;12.40;;;;;;;-0.13;100.00;142241.92;107016;1261;25331;-61
2023/12/30 09:17:21;;;;;;;24.00;13.60;;;;;;;-0.04;100.00;142265.80;107044;1260;25408;-64
2023/12/30 09:20:07;;;;;;;19.00;12.50;;;;;;;0.12;100.00;142305.56;107026;1263;25515;-64
2023/12/30 09:22:53;;;;;;;17.70;11.80;;;;;;;0.25;100.00;142334.41;106949;1264;25513;-65
2023/12/30 09:25:39;;;;;;;19.30;12.50;;;;;;;0.30;100.00;142348.33;107059;1270;25548;-66
2023/12/30 09:28:25;;;;;;;17.80;12.80;;;;;;;0.29;100.00;142345.34;107039;1264;25436;-65
2023/12/30 09:31:11;;;;;;;21.90;13.50;;;;;;;0.28;100.00;142341.34;107071;1263;22539;-66
2023/12/30 09:33:57;;;;;;;19.10;11.30;;;;;;;0.21;100.00;142325.97;107150;1253;25337;-66
2023/12/30 09:36:43;;;;;;;20.70;12.80;;;;;;;0.16;100.00;142314.28;107238;1260;25504;-70
2023/12/30 09:39:29;;;;;;;20.40;12.50;;;;;;;0.11;100.00;142302.33;107196;1263;25366;-65
2023/12/30 09:42:15;;;;;;;19.50;12.40;;;;;;;0.05;100.00;142285.92;107074;1263;25382;-62
2023/12/30 09:45:01;;;;;;;19.20;11.60;;;;;;;0.01;100.00;142278.22;107051;1266;25516;-63
2023/12/30 09:47:47;;;;;;;19.40;11.90;;;;;;;0.04;100.00;142283.45;107037;1263;25354;-64
2023/12/30 09:50:34;;;;;;;18.30;12.50;;;;;;;0.10;100.00;142298.36;107033;1254;25362;-65
2023/12/30 09:53:22;;;;;;;20.40;12.80;;;;;;;0.18;100.00;142320.25;107075;1256;25404;-67
2023/12/30 09:56:08;;;;;;;21.40;13.90;;;;;;;0.26;100.00;142337.16;107215;1266;25411;-63
2023/12/30 09:58:55;;;;;;;26.70;13.50;;;;;;;0.28;100.00;142342.63;107135;1260;25417;-66
2023/12/30 10:01:41;;;;;;;20.00;12.80;;;;;;;0.26;100.00;142338.63;107050;1270;25340;-65
2023/12/30 10:04:26;;;;;;;21.50;14.30;;;;;;;0.24;100.00;142331.94;107035;1272;25344;-65
2023/12/30 10:07:13;;;;;;;17.90;12.20;;;;;;;0.21;100.00;142325.72;107155;1263;25360;-65
2023/12/30 10:09:59;;;;;;;19.30;12.70;;;;;;;0.22;100.00;142327.22;107062;1264;25369;-66
2023/12/30 10:12:46;;;;;;;20.80;12.80;;;;;;;0.30;100.00;142348.59;107037;1263;25430;-64
2023/12/30 10:15:32;;;;;;;16.80;11.80;;;;;;;0.39;100.00;142369.47;107065;1263;25382;-65
2023/12/30 10:18:19;;;;;;;22.80;12.70;;;;;;;0.43;100.00;142378.66;107048;1260;25511;-67
2023/12/30 10:21:06;;;;;;;19.70;12.50;;;;;;;0.50;100.00;142397.33;107060;1263;25424;-68
2023/12/30 10:23:53;;;;;;;19.10;12.00;;;;;;;0.56;100.00;142410.50;107092;1260;25375;-65
2023/12/30 10:26:39;;;;;;;20.70;13.70;;;;;;;0.58;100.00;142416.22;107110;1263;25375;-63
2023/12/30 10:29:25;;;;;;;20.50;12.20;;;;;;;0.59;100.00;142418.97;107021;1263;25376;-65
2023/12/30 10:32:11;;;;;;;18.20;12.00;;;;;;;0.58;100.00;142417.22;107136;1263;25490;-68
2023/12/30 10:34:57;;;;;;;18.00;11.70;;;;;;;0.53;100.00;142403.78;107263;1263;25420;-73
2023/12/30 10:37:43;;;;;;;22.70;12.40;;;;;;;0.47;100.00;142388.88;107179;1263;25359;-64
2023/12/30 10:40:29;;;;;;;17.50;10.60;;;;;;;0.41;100.00;142375.70;107590;1253;25420;-68
2023/12/30 10:43:15;;;;;;;18.20;12.10;;;;;;;0.32;100.00;142353.80;107379;1263;25354;-73
2023/12/30 10:46:03;;;;;;;17.20;10.90;;;;;;;0.25;100.00;142335.66;107111;1264;25433;-75
2023/12/30 10:48:56;;;;;;;20.10;12.10;;;;;;;0.18;100.00;142319.50;107127;1263;25456;-75
2023/12/30 10:51:43;;;;;;;19.00;12.40;;;;;;;0.11;100.00;142302.09;107099;1264;25356;-64
2023/12/30 10:54:39;;;;;;;19.80;12.80;;;;;;;0.10;100.00;142300.63;107180;1260;25369;-73
2023/12/30 10:57:30;;;;;;;19.60;11.80;;;;;;;0.10;100.00;142299.88;107045;1263;25368;-69
2023/12/30 11:00:20;;;;;;;19.60;12.10;;;;;;;0.08;100.00;142294.63;107069;1264;25344;-66
2023/12/30 11:03:06;;;;;;;19.90;11.50;;;;;;;0.03;100.00;142282.45;107113;1263;25369;-61
2023/12/30 11:06:24;;;;;;;21.10;13.50;;;;;;;0.03;100.00;142280.72;107191;1263;25378;-67
2023/12/30 11:09:11;;;;;;;20.40;12.90;;;;;;;0.04;100.00;142283.45;107103;1263;25480;-68
2023/12/30 11:12:02;;;;;;;21.90;12.50;;;;;;;0.04;100.00;142284.69;107093;1263;25452;-63
2023/12/30 11:14:48;;;;;;;22.70;13.30;;;;;;;0.05;100.00;142285.94;107079;1260;25331;-68
2023/12/30 11:17:35;;;;;;;17.80;11.40;;;;;;;0.03;100.00;142283.20;107087;1263;25482;-72
2023/12/30 11:20:24;;;;;;;19.20;11.90;;;;;;;0.07;100.00;142291.91;107105;1263;25391;-63
2023/12/30 11:23:10;;;;;;;17.80;12.00;;;;;;;0.10;100.00;142300.13;107151;1263;25451;-70
2023/12/30 11:25:58;;;;;;;17.70;11.80;;;;;;;0.12;100.00;142303.58;107131;1264;25353;-71
2023/12/30 11:28:45;;;;;;;20.50;11.90;;;;;;;0.11;100.00;142303.08;107054;1263;25417;-68
2023/12/30 11:31:31;;;;;;;19.00;12.20;;;;;;;0.09;100.00;142295.88;107097;1260;25350;-64
2023/12/30 11:34:19;;;;;;;18.20;12.20;;;;;;;0.02;100.00;142280.22;107050;1270;25369;-68
2023/12/30 11:37:09;;;;;;;18.60;11.20;;;;;;;0.01;100.00;142275.75;107085;1263;25375;-62
2023/12/30 11:39:58;;;;;;;19.80;12.90;;;;;;;-0.01;100.00;142273.50;107099;1263;25369;-71
2023/12/30 11:42:44;;;;;;;22.40;13.00;;;;;;;-0.02;100.00;142269.28;107249;1263;25460;-64
2023/12/30 11:45:34;;;;;;;20.60;12.70;;;;;;;0.00;100.00;142275.50;107096;1263;25350;-66
2023/12/30 11:48:20;;;;;;;20.20;11.70;;;;;;;0.04;100.00;142284.95;107086;1261;25369;-69
2023/12/30 11:51:07;;;;;;;18.30;11.50;;;;;;;0.07;100.00;142292.41;107060;1263;25442;-75
2023/12/30 11:53:53;;;;;;;16.30;12.10;;;;;;;0.10;100.00;142299.13;107121;1263;25847;-71
2023/12/30 11:56:39;;;;;;;22.30;11.40;;;;;;;0.12;100.00;142305.08;107229;1263;25426;-73
2023/12/30 11:59:25;;;;;;;22.20;11.90;;;;;;;0.16;100.00;142314.77;107065;1263;25462;-68
2023/12/30 12:02:14;;;;;;;20.50;12.40;;;;;;;0.20;100.00;142323.22;107158;1254;25408;-66
2023/12/30 12:05:01;;;;;;;23.20;12.30;;;;;;;0.21;100.00;142327.69;107246;1262;25239;-65
2023/12/30 12:07:47;;;;;;;17.80;12.00;;;;;;;0.21;100.00;142327.69;107053;1263;25350;-74
2023/12/30 12:10:33;;;;;;;22.30;11.70;;;;;;;0.23;100.00;142329.94;107052;1263;25406;-64
2023/12/30 12:13:23;;;;;;;16.20;10.50;;;;;;;0.24;100.00;142331.69;107028;1264;25491;-68
2023/12/30 12:16:09;;;;;;;18.30;11.60;;;;;;;0.27;100.00;142339.38;107001;1264;25418;-65
2023/12/30 12:18:57;;;;;;;19.00;11.00;;;;;;;0.30;100.00;142347.09;107056;1263;25417;-67
2023/12/30 12:21:43;;;;;;;17.50;11.40;;;;;;;0.33;100.00;142355.28;107056;1263;25415;-69
2023/12/30 12:24:31;;;;;;;18.50;11.30;;;;;;;0.34;100.00;142359.03;107123;1264;25341;-66